KBBW/BBW METAR and TAF weather

Enter ICAO airport designator
Station Type Date Time Source
KBBW METAR 2022/06/30 12:53 UTC NOAA

KBBW 301253Z AUTO 22008KT 10SM CLR 24/15 A2991 RMK AO2 SLP098 T02440150


Station Type Date Time Source
KBBW Decoded METAR 2022/06/30 12:53 UTC NOAA

BROKEN BOW MUNICIPAL AIRPORT, NE, United States (KBBW) 41-26N 099-38W
Jun 30, 2022 - 08:53 AM EDT / 2022.06.30 1253 UTC
Wind: from the SW (220 degrees) at 9 MPH (8 KT):0
Visibility: 10 mile(s):0
Sky conditions: clear
Temperature: 75.9 F (24.4 C)
Dew Point: 59.0 F (15.0 C)
Relative Humidity: 55%
Pressure (altimeter): 29.91 in. Hg (1012 hPa)
ob: KBBW 301253Z AUTO 22008KT 10SM CLR 24/15 A2991 RMK AO2 SLP098 T02440150
cycle: 13

Station Type Date Time Source
KBBW TAF UTC NOAA

Error!

Example: see airport list